首页
METAR-TAF:

METAR-TAF

机场 :

甲米機場

甲米市, 泰国

纬度: 08-06-03N, 经度: 098-59-05E, 海拔: 25米

当前天气观测

该预报发布于42分钟前的17:00 UTC
风速4节,风向北转东北
温度 24°C
湿度 94%
气压 1012 hPa
能見度: 8000
少量云层高于2000英尺

METAR: VTSG 121700Z 02004KT 8000 FEW020 24/23 Q1012 NOSIG

时间: 00:42 (17:42 UTC)

预报

该预报发布于6小时和42分钟前的11:00 UTC
预报有效从12日的 12点(UTC)到 13日的 12点(UTC)
风速节,风向
能見度: 8000
少量云层高于2000英尺
散云层高于10000英尺
成为
从 12日的 18点(UTC)到 12日的 20点(UTC)
能見度: 5000
轻雾
成为
从 13日的 00点(UTC)到 13日的 02点(UTC)
风速8节,风向东转东北
能见度10公里或以上
短暂存在
从 13日的 08点(UTC)到 13日的 12点(UTC)
风速10节,风向多变,有时为20节阵风
能見度: 5000
少量云层高于1800英尺, 积雨云.
散云层高于2000英尺
多云层高于10000英尺
雷暴, 雨

TAF: VTSG 121100Z 1212/1312 00000KT 8000 FEW020 SCT100 BECMG 1218/1220 5000 BR BECMG 1300/1302 06008KT 9999 NSW TEMPO 1308/1312 VRB10G20KT 5000 TSRA FEW018CB SCT020 BKN100

超过4000个机场的气象观测和天气预报(METAR&TAF报告)。

可查询的气象台以黄色和红色小点在地图上表示。

将鼠标移到小点上方,可查看气象台名称。

然后点击查看天气观测和预报。

如需切换地图:点击带黑十字的绿色按钮放大地图;点击带横线的绿色按钮缩小地图;或者点击绿色箭头查看邻近地区的地图。


METAR-TAF: